TimeCEST,TemperatureF,Dew PointF,Humidity,Sea Level PressureIn,VisibilityMPH,Wind Direction,Wind SpeedMPH,Gust SpeedMPH,PrecipitationIn,Events,Conditions,WindDirDegrees,DateUTC
12:55 AM,51.8,50.0,94,29.86,-9999.0,NW,6.9,-,N/A,,Clear,310,2013-04-03 22:55:00
1:55 AM,51.8,51.8,100,29.86,-9999.0,WNW,4.6,-,N/A,,Clear,300,2013-04-03 23:55:00
2:00 AM,52,51,96,29.88,10,WNW,4.6,,,,,300,2013-04-04 00:00:00
2:55 AM,51.8,50.0,94,29.86,-9999.0,NNW,4.6,-,N/A,,Clear,330,2013-04-04 00:55:00
3:55 AM,48.2,48.2,100,29.86,-9999.0,West,4.6,-,N/A,,Clear,270,2013-04-04 01:55:00
4:55 AM,46.4,46.4,100,29.86,-9999.0,NNW,4.6,-,N/A,,Clear,330,2013-04-04 02:55:00
5:00 AM,47,47,98,29.87,10,NNW,4.6,,,,,330,2013-04-04 03:00:00
5:55 AM,44.6,44.6,100,29.86,-9999.0,WSW,6.9,-,N/A,,Clear,240,2013-04-04 03:55:00
6:55 AM,44.6,44.6,100,29.86,6.2,WNW,4.6,-,N/A,,Partly Cloudy,290,2013-04-04 04:55:00
7:55 AM,46.4,46.4,100,29.86,6.2,West,4.6,-,N/A,,Partly Cloudy,260,2013-04-04 05:55:00
8:00 AM,47,46,93,29.88,12,West,4.6,,,,Scattered Clouds,260,2013-04-04 06:00:00
8:55 AM,51.8,44.6,76,29.89,6.2,WSW,1.2,-,N/A,,Partly Cloudy,240,2013-04-04 06:55:00
9:55 AM,57.2,46.4,67,29.89,-9999.0,SSW,1.2,-,N/A,,Clear,200,2013-04-04 07:55:00
10:55 AM,62.6,46.4,55,29.89,-9999.0,SW,1.2,-,N/A,,Clear,220,2013-04-04 08:55:00
11:00 AM,63,46,43,29.91,6,SW,1.2,,,,,220,2013-04-04 09:00:00
11:55 AM,66.2,42.8,43,29.89,-9999.0,NNE,2.3,-,N/A,,Clear,30,2013-04-04 09:55:00
12:55 PM,68.0,42.8,40,29.86,-9999.0,NE,4.6,-,N/A,,Clear,50,2013-04-04 10:55:00
1:55 PM,69.8,46.4,43,29.83,-9999.0,East,12.7,-,N/A,,Clear,100,2013-04-04 11:55:00
2:00 PM,71,46,30,29.84,6,East,12.7,,,,Clear,100,2013-04-04 12:00:00
2:55 PM,69.8,53.6,56,29.80,-9999.0,East,13.8,-,N/A,,Clear,90,2013-04-04 12:55:00
3:55 PM,69.8,55.4,60,29.77,-9999.0,East,13.8,-,N/A,,Clear,90,2013-04-04 13:55:00
4:55 PM,68.0,57.2,68,29.77,6.2,East,18.4,-,N/A,,Scattered Clouds,100,2013-04-04 14:55:00
5:00 PM,68,57,59,29.78,6,East,18.4,,,,Partly Cloudy,100,2013-04-04 15:00:00
5:55 PM,62.6,57.2,82,29.77,6.2,East,19.6,-,N/A,,Scattered Clouds,100,2013-04-04 15:55:00
6:55 PM,60.8,57.2,88,29.74,6.2,East,19.6,-,N/A,,Scattered Clouds,80,2013-04-04 16:55:00
7:55 PM,59.0,59.0,100,29.74,5.0,ENE,17.3,-,N/A,,Scattered Clouds,70,2013-04-04 17:55:00
8:00 PM,59,58,97,29.76,5,ENE,17.3,,,,Mist,70,2013-04-04 18:00:00
8:55 PM,59.0,59.0,100,29.74,6.2,East,15.0,-,N/A,,Scattered Clouds,80,2013-04-04 18:55:00
9:55 PM,59.0,57.2,94,29.71,6.2,East,16.1,-,N/A,,Scattered Clouds,80,2013-04-04 19:55:00
10:55 PM,59.0,57.2,94,29.68,6.2,East,19.6,31.1,N/A,,Scattered Clouds,80,2013-04-04 20:55:00
11:00 PM,59,58,93,29.69,9,East,19.6,,,,Overcast,80,2013-04-04 21:00:00
11:55 PM,59.0,57.2,94,29.68,6.2,ENE,17.3,-,N/A,,Scattered Clouds,70,2013-04-04 21:55:00